createdAt,value
2018-07-23T00:00:12.268Z,100197.43
2018-07-23T00:02:41.402Z,100201.62
2018-07-23T00:05:09.869Z,100210.30
2018-07-23T00:07:38.426Z,100202.56
2018-07-23T00:10:07.418Z,100208.92
2018-07-23T00:12:36.118Z,100210.59
2018-07-23T00:15:05.014Z,100217.08
2018-07-23T00:17:33.704Z,100215.94
2018-07-23T00:20:02.128Z,100215.05
2018-07-23T00:22:30.526Z,100222.88
2018-07-23T00:24:59.180Z,100222.80
2018-07-23T00:27:29.620Z,100218.30
2018-07-23T00:29:58.170Z,100225.86
2018-07-23T00:32:26.938Z,100223.77
2018-07-23T00:34:55.701Z,100221.98
2018-07-23T00:37:24.219Z,100221.89
2018-07-23T00:39:52.942Z,100228.00
2018-07-23T00:42:21.844Z,100221.38
2018-07-23T00:44:50.601Z,100227.11
2018-07-23T00:47:28.443Z,100227.78
2018-07-23T00:49:57.013Z,100232.70
2018-07-23T00:52:27.227Z,100233.87
2018-07-23T00:54:56.299Z,100227.66
2018-07-23T00:57:25.279Z,100234.31
2018-07-23T00:59:54.155Z,100231.52
2018-07-23T01:02:23.165Z,100236.92
2018-07-23T01:04:51.989Z,100243.69
2018-07-23T01:07:20.907Z,100238.00
2018-07-23T01:09:51.266Z,100238.58
2018-07-23T01:12:28.581Z,100238.99
2018-07-23T01:14:58.467Z,100230.11
2018-07-23T01:17:27.007Z,100239.48
2018-07-23T01:19:56.545Z,100240.73
2018-07-23T01:22:26.645Z,100242.89
2018-07-23T01:24:56.165Z,100244.23
2018-07-23T01:27:29.741Z,100246.36
2018-07-23T01:29:58.232Z,100242.89
2018-07-23T01:32:27.027Z,100242.22
2018-07-23T01:34:55.495Z,100247.62
2018-07-23T01:37:33.299Z,100250.31
2018-07-23T01:40:01.963Z,100252.60
2018-07-23T01:42:30.429Z,100253.15
2018-07-23T01:44:58.885Z,100256.04
2018-07-23T01:47:41.309Z,100254.69
2018-07-23T01:50:10.887Z,100256.94
2018-07-23T01:52:39.371Z,100253.66
2018-07-23T01:55:07.833Z,100254.11
2018-07-23T01:57:37.176Z,100260.51
2018-07-23T02:00:06.948Z,100256.59
2018-07-23T02:02:37.455Z,100256.06
2018-07-23T02:05:05.908Z,100258.55
2018-07-23T02:07:34.541Z,100259.25
2018-07-23T02:10:03.383Z,100260.83
2018-07-23T02:12:32.201Z,100258.77
2018-07-23T02:15:02.075Z,100251.08
2018-07-23T02:17:30.997Z,100254.84
2018-07-23T02:19:59.717Z,100256.67
2018-07-23T02:22:28.497Z,100253.30
2018-07-23T02:24:57.531Z,100256.34
2018-07-23T02:27:31.313Z,100254.00
2018-07-23T02:30:00.735Z,100255.92
2018-07-23T02:32:29.433Z,100255.14
2018-07-23T02:34:58.158Z,100263.05
2018-07-23T02:37:27.211Z,100260.34
2018-07-23T02:39:56.283Z,100257.07
2018-07-23T02:42:25.070Z,100263.70
2018-07-23T02:44:54.040Z,100259.77
2018-07-23T02:47:36.395Z,100261.02
2018-07-23T02:50:05.367Z,100262.12
2018-07-23T02:52:34.053Z,100261.34
2018-07-23T02:55:02.525Z,100268.13
2018-07-23T02:57:32.203Z,100266.16
2018-07-23T03:00:02.017Z,100269.89
2018-07-23T03:02:30.523Z,100274.70
2018-07-23T03:04:59.085Z,100265.81
2018-07-23T03:07:41.720Z,100273.25
2018-07-23T03:10:10.145Z,100275.42
2018-07-23T03:12:38.771Z,100274.31
2018-07-23T03:15:08.113Z,100278.77
2018-07-23T03:17:36.572Z,100283.93
2018-07-23T03:20:05.761Z,100284.84
2018-07-23T03:22:34.234Z,100294.48
2018-07-23T03:25:02.641Z,100297.11
2018-07-23T03:27:44.709Z,100291.83
2018-07-23T03:30:13.246Z,100296.53
2018-07-23T03:32:41.978Z,100300.00
2018-07-23T03:35:10.511Z,100307.98
2018-07-23T03:37:39.243Z,100300.99
2018-07-23T03:40:07.832Z,100301.75
2018-07-23T03:42:36.379Z,100310.18
2018-07-23T03:45:05.845Z,100306.38
2018-07-23T03:47:34.413Z,100309.08
2018-07-23T03:50:03.351Z,100309.50
2018-07-23T03:52:31.877Z,100311.20
2018-07-23T03:55:00.975Z,100310.50
2018-07-23T03:57:43.123Z,100309.73
2018-07-23T04:00:11.677Z,100312.41
2018-07-23T04:02:40.127Z,100314.66
2018-07-23T04:05:08.653Z,100312.30
2018-07-23T04:07:37.181Z,100312.88
2018-07-23T04:10:05.978Z,100318.94
2018-07-23T04:12:34.348Z,100311.73
2018-07-23T04:15:03.324Z,100317.81
2018-07-23T04:20:38.697Z,100320.41
2018-07-23T04:23:07.571Z,100326.38
2018-07-23T04:25:45.493Z,100320.88
2018-07-23T04:28:14.167Z,100321.67
2018-07-23T04:30:43.049Z,100322.83
2018-07-23T04:33:11.529Z,100321.36
2018-07-23T04:35:40.057Z,100322.39
2018-07-23T04:38:09.415Z,100322.94
2018-07-23T04:40:37.885Z,100319.23
2018-07-23T04:43:06.411Z,100324.20
2018-07-23T04:45:35.014Z,100319.11
2018-07-23T04:48:03.464Z,100326.00
2018-07-23T04:50:31.976Z,100326.77
2018-07-23T04:53:00.531Z,100328.87
2018-07-23T04:55:34.405Z,100326.62
2018-07-23T04:58:02.914Z,100333.02
2018-07-23T05:00:31.461Z,100334.02
2018-07-23T05:03:00.148Z,100335.89
2018-07-23T05:05:28.881Z,100338.24
2018-07-23T05:07:57.487Z,100344.33
2018-07-23T05:10:26.077Z,100345.22
2018-07-23T05:12:54.515Z,100349.29
2018-07-23T05:15:23.107Z,100350.22
2018-07-23T05:17:51.711Z,100354.14
2018-07-23T05:20:20.249Z,100358.62
2018-07-23T05:22:48.963Z,100353.22
2018-07-23T05:25:17.447Z,100358.74
2018-07-23T05:27:46.501Z,100356.05
2018-07-23T05:30:14.983Z,100356.52
2018-07-23T05:32:43.474Z,100360.56
2018-07-23T05:35:12.076Z,100363.37
2018-07-23T05:37:40.744Z,100364.38
2018-07-23T05:40:09.350Z,100368.65
2018-07-23T05:42:37.897Z,100368.30
2018-07-23T05:45:06.937Z,100362.61
2018-07-23T05:47:54.143Z,100369.59
2018-07-23T05:50:22.702Z,100366.42
2018-07-23T05:52:51.151Z,100365.72
2018-07-23T05:55:19.563Z,100366.17
2018-07-23T05:57:48.184Z,100366.72
2018-07-23T06:00:16.693Z,100368.86
2018-07-23T06:02:45.253Z,100364.53
2018-07-23T06:05:13.696Z,100369.04
2018-07-23T06:07:42.584Z,100367.04
2018-07-23T06:10:11.300Z,100372.22
2018-07-23T06:12:39.876Z,100374.22
2018-07-23T06:15:09.190Z,100379.25
2018-07-23T06:17:38.061Z,100379.83
2018-07-23T06:20:08.014Z,100386.13
2018-07-23T06:22:36.631Z,100383.66
2018-07-23T06:25:05.683Z,100389.16
2018-07-23T06:27:34.184Z,100388.81
2018-07-23T06:30:08.707Z,100384.64
2018-07-23T06:32:37.459Z,100389.71
2018-07-23T06:35:07.540Z,100382.52
2018-07-23T06:37:41.576Z,100381.06
2018-07-23T06:40:11.529Z,100374.70
2018-07-23T06:42:40.395Z,100380.91
2018-07-23T06:45:09.444Z,100382.81
2018-07-23T06:47:56.774Z,100380.86
2018-07-23T06:50:25.500Z,100387.72
2018-07-23T06:52:54.200Z,100385.34
2018-07-23T06:55:22.983Z,100387.60
2018-07-23T06:57:51.924Z,100387.33
2018-07-23T07:00:20.740Z,100396.18
2018-07-23T07:02:49.662Z,100392.90
2018-07-23T07:05:18.487Z,100392.35
2018-07-23T07:07:47.388Z,100388.62
2018-07-23T07:10:16.573Z,100396.47
2018-07-23T07:12:45.406Z,100394.74
2018-07-23T07:15:14.238Z,100397.98
2018-07-23T07:17:46.130Z,100398.28
2018-07-23T07:20:18.300Z,100401.31
2018-07-23T07:22:47.252Z,100402.27
2018-07-23T07:25:16.120Z,100402.49
2018-07-23T07:27:45.092Z,100404.48
2018-07-23T07:30:14.230Z,100401.43
2018-07-23T07:32:43.162Z,100408.41
2018-07-23T07:35:13.031Z,100406.29
2018-07-23T07:37:42.113Z,100405.58
2018-07-23T07:40:10.872Z,100403.45
2018-07-23T07:42:40.014Z,100399.40
2018-07-23T07:45:08.892Z,100401.91
2018-07-23T07:47:47.097Z,100400.30
2018-07-23T07:50:16.684Z,100404.09
2018-07-23T07:52:45.491Z,100402.22
2018-07-23T07:55:14.498Z,100407.98
2018-07-23T07:57:43.150Z,100409.34
2018-07-23T08:00:11.761Z,100407.63
2018-07-23T08:02:40.297Z,100404.92
2018-07-23T08:05:08.965Z,100407.17
2018-07-23T08:07:44.192Z,100406.86
2018-07-23T08:10:12.785Z,100410.03
2018-07-23T08:12:41.315Z,100412.83
2018-07-23T08:15:09.999Z,100402.58
2018-07-23T08:17:48.106Z,100410.98
2018-07-23T08:20:16.805Z,100406.45
2018-07-23T08:22:45.679Z,100400.41
2018-07-23T08:25:14.385Z,100399.84
2018-07-23T08:27:43.501Z,100395.42
2018-07-23T08:30:11.989Z,100394.29
2018-07-23T08:32:40.491Z,100397.63
2018-07-23T08:35:10.421Z,100400.20
2018-07-23T08:37:39.322Z,100398.05
2018-07-23T08:40:08.007Z,100404.45
2018-07-23T08:42:36.718Z,100400.47
2018-07-23T08:45:05.795Z,100404.66
2018-07-23T08:47:35.357Z,100405.16
2018-07-23T08:50:04.522Z,100405.32
2018-07-23T08:52:34.184Z,100405.08
2018-07-23T08:55:03.716Z,100406.14
2018-07-23T08:57:32.627Z,100411.42
2018-07-23T09:00:01.225Z,100403.98
2018-07-23T09:02:29.977Z,100403.94
2018-07-23T09:04:58.549Z,100406.83
2018-07-23T09:07:28.186Z,100403.56
2018-07-23T09:09:56.903Z,100400.48
2018-07-23T09:12:25.667Z,100396.30
2018-07-23T09:14:54.637Z,100404.28
2018-07-23T09:17:23.425Z,100401.48
2018-07-23T09:19:52.135Z,100407.75
2018-07-23T09:22:20.761Z,100400.48
2018-07-23T09:24:49.443Z,100401.69
2018-07-23T09:27:18.632Z,100404.63
2018-07-23T09:29:47.215Z,100401.79
2018-07-23T09:32:16.077Z,100398.30
2018-07-23T09:34:44.635Z,100403.30
2018-07-23T09:37:18.314Z,100397.94
2018-07-23T09:39:47.175Z,100395.61
2018-07-23T09:42:15.730Z,100402.09
2018-07-23T09:44:44.295Z,100396.64
2018-07-23T09:47:18.295Z,100392.13
2018-07-23T09:49:47.532Z,100396.01
2018-07-23T09:52:16.360Z,100391.48
2018-07-23T09:54:45.029Z,100395.41
2018-07-23T09:57:23.704Z,100386.34
2018-07-23T09:59:54.035Z,100384.13
2018-07-23T10:02:23.968Z,100378.05
2018-07-23T10:04:54.491Z,100379.54
2018-07-23T10:07:23.247Z,100377.47
2018-07-23T10:09:53.328Z,100381.66
2018-07-23T10:12:22.070Z,100373.82
2018-07-23T10:14:51.726Z,100375.70
2018-07-23T10:17:20.424Z,100370.09
2018-07-23T10:19:50.900Z,100371.67
2018-07-23T10:22:20.398Z,100369.80
2018-07-23T10:24:52.420Z,100363.97
2018-07-23T10:27:21.341Z,100365.09
2018-07-23T10:29:50.570Z,100369.08
2018-07-23T10:32:19.022Z,100369.91
2018-07-23T10:34:47.542Z,100366.28
2018-07-23T10:37:16.204Z,100369.90
2018-07-23T10:39:45.027Z,100358.70
2018-07-23T10:42:13.698Z,100355.23
2018-07-23T10:44:42.295Z,100354.56
2018-07-23T10:47:10.838Z,100346.60
2018-07-23T10:49:39.382Z,100344.28
2018-07-23T10:52:08.042Z,100338.67
2018-07-23T10:54:36.556Z,100341.05
2018-07-23T10:57:05.353Z,100342.88
2018-07-23T10:59:34.330Z,100339.94
2018-07-23T11:02:02.809Z,100335.67
2018-07-23T11:04:31.766Z,100330.42
2018-07-23T11:07:05.836Z,100332.98
2018-07-23T11:09:34.390Z,100336.86
2018-07-23T11:12:03.286Z,100334.33
2018-07-23T11:14:32.070Z,100331.00
2018-07-23T11:17:00.787Z,100337.61
2018-07-23T11:19:29.170Z,100337.45
2018-07-23T11:21:57.601Z,100325.25
2018-07-23T11:24:26.169Z,100321.37
2018-07-23T11:26:54.611Z,100332.67
2018-07-23T11:29:23.230Z,100324.66
2018-07-23T11:31:51.768Z,100325.64
2018-07-23T11:34:20.186Z,100324.46
2018-07-23T11:36:48.700Z,100324.25
2018-07-23T11:39:17.288Z,100327.50
2018-07-23T11:41:45.757Z,100322.60
2018-07-23T11:44:14.298Z,100324.97
2018-07-23T11:46:42.939Z,100322.01
2018-07-23T11:49:11.683Z,100318.16
2018-07-23T11:51:40.275Z,100319.94
2018-07-23T11:54:08.807Z,100315.59
2018-07-23T11:56:37.356Z,100318.01
2018-07-23T11:59:05.931Z,100314.76
2018-07-23T12:01:34.460Z,100314.95
2018-07-23T12:04:02.886Z,100313.47
2018-07-23T12:06:31.457Z,100313.78
2018-07-23T12:09:00.213Z,100315.52
2018-07-23T12:11:30.744Z,100305.45
2018-07-23T12:13:59.257Z,100298.69
2018-07-23T12:16:27.721Z,100297.64
2018-07-23T12:18:56.207Z,100302.73
2018-07-23T12:21:24.701Z,100300.94
2018-07-23T12:23:54.241Z,100300.36
2018-07-23T12:26:22.919Z,100299.38
2018-07-23T12:28:51.391Z,100288.86
2018-07-23T12:31:20.116Z,100292.32
2018-07-23T12:33:48.811Z,100292.10
2018-07-23T12:36:17.466Z,100286.19
2018-07-23T12:38:45.948Z,100281.36
2018-07-23T12:41:14.713Z,100282.25
2018-07-23T12:43:43.511Z,100276.47
2018-07-23T12:46:17.066Z,100272.95
2018-07-23T12:48:45.663Z,100276.52
2018-07-23T12:51:14.394Z,100279.22
2018-07-23T12:53:42.807Z,100276.52
2018-07-23T12:56:11.340Z,100273.02
2018-07-23T12:58:40.175Z,100271.40
2018-07-23T13:01:09.072Z,100270.64
2018-07-23T13:03:37.652Z,100270.03
2018-07-23T13:06:06.278Z,100267.75
2018-07-23T13:08:34.793Z,100264.82
2018-07-23T13:11:03.339Z,100265.90
2018-07-23T13:13:32.202Z,100266.78
2018-07-23T13:16:00.610Z,100258.92
2018-07-23T13:18:29.056Z,100257.36
2018-07-23T13:20:57.530Z,100257.79
2018-07-23T13:23:27.018Z,100255.04
2018-07-23T13:25:55.522Z,100252.39
2018-07-23T13:28:24.260Z,100253.41
2018-07-23T13:30:52.792Z,100255.30
2018-07-23T13:33:21.306Z,100254.73
2018-07-23T13:35:49.851Z,100244.26
2018-07-23T13:38:18.575Z,100248.81
2018-07-23T13:40:47.228Z,100237.63
2018-07-23T13:43:15.644Z,100238.34
2018-07-23T13:45:44.286Z,100240.37
2018-07-23T13:48:12.722Z,100231.94
2018-07-23T13:50:41.172Z,100241.13
2018-07-23T13:53:09.625Z,100237.69
2018-07-23T13:55:38.126Z,100236.86
2018-07-23T13:58:06.644Z,100232.92
2018-07-23T14:00:35.199Z,100231.72
2018-07-23T14:03:03.715Z,100236.13
2018-07-23T14:05:32.210Z,100235.82
2018-07-23T14:08:00.819Z,100233.77
2018-07-23T14:10:29.276Z,100235.40
2018-07-23T14:12:58.127Z,100240.09
2018-07-23T14:15:26.837Z,100238.19
2018-07-23T14:17:56.340Z,100232.28
2018-07-23T14:20:24.856Z,100230.69
2018-07-23T14:22:53.634Z,100229.62
2018-07-23T14:25:22.413Z,100230.14
2018-07-23T14:27:50.900Z,100230.69
2018-07-23T14:30:19.787Z,100224.36
2018-07-23T14:32:48.245Z,100228.22
2018-07-23T14:35:16.689Z,100227.76
2018-07-23T14:37:45.253Z,100219.52
2018-07-23T14:40:13.899Z,100222.22
2018-07-23T14:42:42.606Z,100219.28
2018-07-23T14:45:11.070Z,100216.67
2018-07-23T14:47:39.527Z,100211.56
2018-07-23T14:50:08.189Z,100211.23
2018-07-23T14:52:37.061Z,100212.70
2018-07-23T14:55:05.643Z,100212.78
2018-07-23T14:57:34.129Z,100207.58
2018-07-23T15:00:02.602Z,100205.59
2018-07-23T15:02:31.130Z,100204.91
2018-07-23T15:04:59.641Z,100202.36
2018-07-23T15:07:28.138Z,100204.16
2018-07-23T15:09:56.729Z,100201.28
2018-07-23T15:12:25.244Z,100192.03
2018-07-23T15:14:53.811Z,100200.23
2018-07-23T15:17:22.603Z,100203.21
2018-07-23T15:19:51.393Z,100201.77
2018-07-23T15:22:20.119Z,100198.64
2018-07-23T15:24:48.574Z,100191.14
2018-07-23T15:27:17.161Z,100187.53
2018-07-23T15:29:45.917Z,100187.60
2018-07-23T15:32:14.406Z,100190.61
2018-07-23T15:34:42.934Z,100200.72
2018-07-23T15:37:25.137Z,100199.29
2018-07-23T15:39:53.748Z,100200.56
2018-07-23T15:42:22.590Z,100192.05
2018-07-23T15:44:51.301Z,100188.39
2018-07-23T15:47:19.676Z,100195.48
2018-07-23T15:49:48.442Z,100197.67
2018-07-23T15:52:17.149Z,100194.77
2018-07-23T15:54:45.695Z,100193.81
2018-07-23T15:57:14.274Z,100185.63
2018-07-23T15:59:43.066Z,100189.32
2018-07-23T16:02:11.949Z,100179.94
2018-07-23T16:04:40.498Z,100187.38
2018-07-23T16:07:09.029Z,100184.48
2018-07-23T16:09:37.813Z,100183.94
2018-07-23T16:12:06.629Z,100186.50
2018-07-23T16:14:35.700Z,100189.22
2018-07-23T16:17:04.201Z,100185.35
2018-07-23T16:19:32.903Z,100186.17
2018-07-23T16:22:01.390Z,100186.39
2018-07-23T16:24:29.954Z,100188.96
2018-07-23T16:26:58.639Z,100183.68
2018-07-23T16:29:27.061Z,100185.44
2018-07-23T16:31:55.543Z,100187.38
2018-07-23T16:34:23.992Z,100181.55
2018-07-23T16:36:52.581Z,100179.16
2018-07-23T16:39:21.148Z,100175.87
2018-07-23T16:41:49.882Z,100176.86
2018-07-23T16:44:18.359Z,100178.85
2018-07-23T16:46:47.160Z,100180.81
2018-07-23T16:49:15.612Z,100181.05
2018-07-23T16:51:44.331Z,100173.80
2018-07-23T16:54:12.862Z,100182.11
2018-07-23T16:56:41.492Z,100178.94
2018-07-23T16:59:10.632Z,100179.04
2018-07-23T17:01:39.147Z,100188.01
2018-07-23T17:04:07.587Z,100184.73
2018-07-23T17:06:36.055Z,100183.44
2018-07-23T17:09:06.628Z,100180.18
2018-07-23T17:11:35.144Z,100181.94
2018-07-23T17:14:03.667Z,100183.66
2018-07-23T17:16:32.265Z,100189.31
2018-07-23T17:19:00.689Z,100184.94
2018-07-23T17:21:29.309Z,100185.95
2018-07-23T17:23:57.780Z,100192.79
2018-07-23T17:26:27.684Z,100194.23
2018-07-23T17:28:56.513Z,100196.00
2018-07-23T17:31:25.409Z,100193.63
2018-07-23T17:33:54.244Z,100193.41
2018-07-23T17:36:24.199Z,100192.81
2018-07-23T17:38:53.398Z,100193.63
2018-07-23T17:41:22.476Z,100191.09
2018-07-23T17:43:51.747Z,100199.34
2018-07-23T17:49:14.046Z,100200.67
2018-07-23T17:51:43.033Z,100196.17
2018-07-23T17:54:12.427Z,100197.18
2018-07-23T17:56:41.834Z,100208.92
2018-07-23T17:59:10.843Z,100198.80
2018-07-23T18:01:40.733Z,100202.72
2018-07-23T18:04:10.005Z,100205.66
2018-07-23T18:06:39.575Z,100203.30
2018-07-23T18:09:10.343Z,100211.73
2018-07-23T18:11:39.540Z,100212.69
2018-07-23T18:14:10.608Z,100205.86
2018-07-23T18:16:40.294Z,100205.09
2018-07-23T18:19:10.625Z,100202.56
2018-07-23T18:21:40.921Z,100207.63
2018-07-23T18:24:09.603Z,100206.83
2018-07-23T18:26:38.555Z,100209.39
2018-07-23T18:29:09.314Z,100213.49
2018-07-23T18:31:40.350Z,100218.75
2018-07-23T18:34:10.729Z,100223.65
2018-07-23T18:36:49.575Z,100221.69
2018-07-23T18:39:20.077Z,100222.28
2018-07-23T18:41:50.003Z,100222.69
2018-07-23T18:44:20.231Z,100225.81
2018-07-23T18:46:50.425Z,100228.94
2018-07-23T18:49:32.866Z,100227.77
2018-07-23T18:52:02.254Z,100238.69
2018-07-23T18:54:35.663Z,100234.02
2018-07-23T18:57:13.976Z,100240.45
2018-07-23T18:59:43.562Z,100248.62
2018-07-23T19:02:14.719Z,100249.63
2018-07-23T19:04:45.969Z,100254.08
2018-07-23T19:07:16.447Z,100258.34
2018-07-23T19:09:45.954Z,100259.33
2018-07-23T19:12:16.848Z,100258.75
2018-07-23T19:14:47.288Z,100265.17
2018-07-23T19:17:17.568Z,100268.69
2018-07-23T19:19:47.607Z,100269.45
2018-07-23T19:22:17.960Z,100268.67
2018-07-23T19:24:47.856Z,100278.42
2018-07-23T19:30:15.985Z,100289.92
2018-07-23T19:32:45.678Z,100288.15
2018-07-23T19:35:14.502Z,100292.84
2018-07-23T19:37:49.366Z,100290.30
2018-07-23T19:40:18.852Z,100293.02
2018-07-23T19:42:48.640Z,100292.44
2018-07-23T19:45:18.747Z,100302.55
2018-07-23T19:48:09.999Z,100301.97
2018-07-23T19:50:38.603Z,100299.04
2018-07-23T19:53:07.302Z,100298.06
2018-07-23T19:55:36.113Z,100300.38
2018-07-23T19:58:04.848Z,100305.47
2018-07-23T20:00:33.555Z,100313.23
2018-07-23T20:03:03.335Z,100311.11
2018-07-23T20:05:33.323Z,100306.20
2018-07-23T20:13:58.225Z,100304.78
2018-07-23T20:19:29.804Z,100315.48
2018-07-23T20:21:58.692Z,100310.22
2018-07-23T20:24:30.231Z,100314.31
2018-07-23T20:27:00.464Z,100310.21
2018-07-23T20:29:30.661Z,100309.41
2018-07-23T20:32:03.859Z,100312.53
2018-07-23T20:34:34.099Z,100311.55
2018-07-23T20:37:10.773Z,100311.14
2018-07-23T20:39:40.787Z,100313.30
2018-07-23T20:42:13.187Z,100313.48
2018-07-23T20:44:48.519Z,100307.23
2018-07-23T20:47:24.942Z,100308.22
2018-07-23T20:49:54.610Z,100309.97
2018-07-23T20:52:23.548Z,100304.50
2018-07-23T20:54:52.594Z,100310.70
2018-07-23T20:57:30.717Z,100316.92
2018-07-23T20:59:59.933Z,100313.00
2018-07-23T21:02:28.884Z,100322.15
2018-07-23T21:04:57.529Z,100319.22
2018-07-23T21:07:31.569Z,100321.15
2018-07-23T21:10:00.838Z,100324.80
2018-07-23T21:12:29.937Z,100331.43
2018-07-23T21:14:58.541Z,100326.34
2018-07-23T21:17:32.070Z,100324.59
2018-07-23T21:20:00.499Z,100327.88
2018-07-23T21:22:29.220Z,100326.34
2018-07-23T21:24:58.918Z,100321.78
2018-07-23T21:27:36.827Z,100329.57
2018-07-23T21:30:06.431Z,100327.77
2018-07-23T21:32:36.230Z,100329.90
2018-07-23T21:35:04.857Z,100342.89
2018-07-23T21:37:39.414Z,100331.02
2018-07-23T21:40:08.717Z,100331.23
2018-07-23T21:42:37.237Z,100336.85
2018-07-23T21:45:06.428Z,100332.77
2018-07-23T21:47:35.274Z,100338.39
2018-07-23T21:50:05.031Z,100336.82
2018-07-23T21:52:33.506Z,100336.82
2018-07-23T21:55:04.059Z,100343.59
2018-07-23T21:57:37.614Z,100344.54
2018-07-23T22:00:11.032Z,100344.33
2018-07-23T22:02:40.200Z,100348.80
2018-07-23T22:05:09.541Z,100347.40
2018-07-23T22:07:39.311Z,100348.30
2018-07-23T22:10:08.828Z,100343.84
2018-07-23T22:12:37.418Z,100349.11
2018-07-23T22:15:07.624Z,100346.59
2018-07-23T22:17:36.630Z,100345.80
2018-07-23T22:20:10.671Z,100352.59
2018-07-23T22:22:40.129Z,100352.42
2018-07-23T22:25:09.428Z,100353.02
2018-07-23T22:27:39.698Z,100357.45
2018-07-23T22:30:08.328Z,100352.18
2018-07-23T22:32:36.811Z,100354.91
2018-07-23T22:35:05.396Z,100346.34
2018-07-23T22:37:56.562Z,100353.12
2018-07-23T22:40:25.122Z,100356.43
2018-07-23T22:42:53.796Z,100355.06
2018-07-23T22:45:22.712Z,100356.02
2018-07-23T22:48:01.702Z,100352.06
2018-07-23T22:50:30.496Z,100357.72
2018-07-23T22:52:58.999Z,100353.59
2018-07-23T22:55:27.512Z,100355.09
2018-07-23T22:57:56.045Z,100356.20
2018-07-23T23:00:24.614Z,100359.86
2018-07-23T23:02:53.282Z,100359.25
2018-07-23T23:05:21.922Z,100367.34
2018-07-23T23:08:04.235Z,100361.12
2018-07-23T23:10:33.410Z,100357.97
2018-07-23T23:13:01.891Z,100362.00
2018-07-23T23:15:31.082Z,100362.17
2018-07-23T23:18:09.276Z,100363.53
2018-07-23T23:20:38.248Z,100356.09
2018-07-23T23:23:06.776Z,100356.48
2018-07-23T23:25:35.458Z,100356.46
2018-07-23T23:28:18.106Z,100352.30
2018-07-23T23:30:46.600Z,100356.80
2018-07-23T23:33:15.142Z,100356.80
2018-07-23T23:35:45.314Z,100356.80
2018-07-23T23:38:13.820Z,100353.23
2018-07-23T23:40:42.402Z,100350.67
2018-07-23T23:43:11.260Z,100341.66
2018-07-23T23:45:39.954Z,100345.34
2018-07-23T23:48:09.796Z,100348.83
2018-07-23T23:50:39.526Z,100347.09
2018-07-23T23:53:08.616Z,100345.34
2018-07-23T23:55:37.411Z,100343.44
